Time;durP1;ratioP1;P1;durP2;ratioP2;P2;SDS_P1;SDS_P2;PMS_P1;PMS_P2;Temp;Humidity;BMP_temperature;BMP_pressure;BME280_temperature;BME280_humidity;BME280_pressure;Samples;Min_cycle;Max_cycle;Signal;HPM_P1;HPM_P2
2022/01/29 00:01:10;;;;;;;9.55;3.05;;;;;;;0.70;84.40;100045.03;5096093;28;20066;-80
2022/01/29 00:03:37;;;;;;;19.00;4.82;;;;;;;0.78;84.63;100051.13;5096412;28;20051;-80
2022/01/29 00:06:05;;;;;;;13.82;3.72;;;;;;;0.80;84.21;100046.66;5096297;28;20051;-79
2022/01/29 00:08:34;;;;;;;14.27;4.15;;;;;;;0.84;84.07;100059.00;5096121;28;20040;-79
2022/01/29 00:11:08;;;;;;;10.30;3.20;;;;;;;0.81;84.32;100056.41;5096188;28;20048;-81
2022/01/29 00:13:36;;;;;;;13.82;3.95;;;;;;;0.61;84.23;100066.38;5117790;28;20047;-79
2022/01/29 00:16:05;;;;;;;11.63;2.72;;;;;;;0.76;84.34;100066.22;5115879;27;20054;-79
2022/01/29 00:18:32;;;;;;;8.48;2.40;;;;;;;0.66;83.86;100072.53;5116238;27;20043;-80
2022/01/29 00:21:00;;;;;;;10.13;3.08;;;;;;;0.62;84.03;100066.38;5116579;27;20050;-79
2022/01/29 00:23:28;;;;;;;9.38;3.00;;;;;;;0.68;84.11;100074.28;5116422;27;20392;-79
2022/01/29 00:25:59;;;;;;;9.05;2.58;;;;;;;0.76;84.33;100078.59;5116396;27;20420;-79
2022/01/29 00:28:28;;;;;;;12.73;2.90;;;;;;;0.57;84.64;100073.53;5107675;27;20051;-80
2022/01/29 00:30:56;;;;;;;7.45;2.58;;;;;;;0.78;83.78;100084.78;5095272;28;20052;-79
2022/01/29 00:33:24;;;;;;;14.27;3.75;;;;;;;0.65;84.90;100084.09;5095888;28;20048;-79
2022/01/29 00:35:51;;;;;;;11.68;3.40;;;;;;;0.61;84.64;100085.88;5095693;28;20105;-79
2022/01/29 00:38:20;;;;;;;11.77;3.25;;;;;;;0.69;84.36;100091.13;5095542;28;20382;-80
2022/01/29 00:40:48;;;;;;;11.10;2.90;;;;;;;0.61;85.29;100085.88;5095787;28;20044;-80
2022/01/29 00:43:17;;;;;;;10.82;3.00;;;;;;;0.79;84.16;100091.88;5077521;28;20052;-79
2022/01/29 00:45:45;;;;;;;7.90;2.90;;;;;;;0.69;84.25;100088.47;5077198;28;20048;-79
2022/01/29 00:48:12;;;;;;;12.13;3.10;;;;;;;0.76;84.35;100083.94;5111070;28;20055;-80
2022/01/29 00:50:40;;;;;;;9.25;2.42;;;;;;;0.74;83.98;100091.94;5115385;28;20104;-80
2022/01/29 00:53:12;;;;;;;13.38;2.95;;;;;;;0.80;84.11;100093.63;5115366;28;20043;-79
2022/01/29 00:55:41;;;;;;;9.15;2.65;;;;;;;0.76;84.49;100089.25;5115656;28;20403;-79
2022/01/29 00:58:09;;;;;;;10.13;3.50;;;;;;;0.71;84.38;100094.63;5116030;28;20047;-80
2022/01/29 01:00:38;;;;;;;11.60;3.78;;;;;;;0.67;84.64;100100.91;5115397;28;20464;-80
2022/01/29 01:03:06;;;;;;;13.20;3.25;;;;;;;0.69;84.64;100104.41;5115557;28;20047;-79
2022/01/29 01:05:34;;;;;;;12.68;3.35;;;;;;;0.62;85.28;100106.25;5115046;28;20495;-80
2022/01/29 01:08:01;;;;;;;10.23;3.00;;;;;;;0.69;85.81;100109.72;5115461;28;20051;-81
2022/01/29 01:10:29;;;;;;;8.05;3.05;;;;;;;0.66;85.88;100107.13;5115616;28;20048;-79
2022/01/29 01:12:56;;;;;;;9.75;3.17;;;;;;;0.68;85.86;100102.66;5115522;28;20048;-79
2022/01/29 01:15:24;;;;;;;16.27;6.18;;;;;;;0.64;86.08;100114.22;5114826;28;20043;-79
2022/01/29 01:17:53;;;;;;;9.05;2.88;;;;;;;0.71;85.94;100103.47;5115370;28;20047;-79
2022/01/29 01:20:21;;;;;;;11.07;3.42;;;;;;;0.64;86.15;100107.13;5115422;28;20085;-79
2022/01/29 01:22:48;;;;;;;13.10;3.83;;;;;;;0.76;86.25;100100.78;5115422;28;20048;-80
2022/01/29 01:25:16;;;;;;;12.38;3.28;;;;;;;0.64;86.16;100111.56;5115341;28;20039;-79
2022/01/29 01:27:46;;;;;;;9.00;2.67;;;;;;;0.58;86.81;100097.41;5093019;28;20043;-79
2022/01/29 01:30:13;;;;;;;9.38;2.78;;;;;;;0.67;85.84;100096.44;5091506;28;20544;-79
2022/01/29 01:32:43;;;;;;;10.73;3.50;;;;;;;0.66;86.05;100096.47;5096932;28;20060;-79
2022/01/29 01:35:18;;;;;;;9.43;2.92;;;;;;;0.63;86.42;100099.19;5096569;28;20416;-80
2022/01/29 01:37:50;;;;;;;11.48;3.28;;;;;;;0.65;85.86;100100.03;5114721;28;20067;-81
2022/01/29 01:40:18;;;;;;;8.57;3.00;;;;;;;0.60;86.13;100100.06;5114802;27;20047;-80
2022/01/29 01:42:46;;;;;;;10.98;3.22;;;;;;;0.67;86.29;100099.09;5113959;27;20413;-80
2022/01/29 01:45:14;;;;;;;7.85;2.55;;;;;;;0.69;86.05;100101.75;5114621;27;20043;-80
2022/01/29 01:47:42;;;;;;;10.15;2.95;;;;;;;0.56;85.94;100104.53;5114642;28;20040;-81
2022/01/29 01:50:18;;;;;;;8.35;2.80;;;;;;;0.66;85.93;100102.66;5116274;27;20064;-80
2022/01/29 01:52:49;;;;;;;9.43;3.25;;;;;;;0.62;85.97;100098.28;5114473;27;20044;-80
2022/01/29 01:55:18;;;;;;;12.18;3.08;;;;;;;0.55;85.39;100102.78;5113292;28;20047;-79
2022/01/29 01:57:58;;;;;;;10.55;3.20;;;;;;;0.57;85.53;100100.97;5114032;28;20043;-80
2022/01/29 02:00:26;;;;;;;10.75;3.20;;;;;;;0.57;85.64;100110.75;5114480;28;20067;-79
2022/01/29 02:02:54;;;;;;;8.88;3.15;;;;;;;0.65;85.98;100105.34;5113599;27;20118;-79
2022/01/29 02:05:23;;;;;;;9.23;2.88;;;;;;;0.64;85.87;100117.75;5113003;28;20051;-81
2022/01/29 02:07:51;;;;;;;10.05;3.38;;;;;;;0.52;86.10;100110.78;5114285;28;20046;-81
2022/01/29 02:10:18;;;;;;;9.90;3.22;;;;;;;0.67;85.76;100111.53;5114469;28;20047;-79
2022/01/29 02:12:51;;;;;;;9.77;3.22;;;;;;;0.51;86.11;100116.13;5095910;28;20047;-79
2022/01/29 02:15:20;;;;;;;11.07;3.78;;;;;;;0.63;85.87;100115.13;5115011;28;20055;-79
2022/01/29 02:17:48;;;;;;;14.45;3.28;;;;;;;0.60;85.66;100108.06;5113208;28;20047;-79
2022/01/29 02:20:16;;;;;;;11.65;3.47;;;;;;;0.63;85.23;100110.66;5114272;28;20067;-79
2022/01/29 02:22:45;;;;;;;9.73;3.15;;;;;;;0.53;85.61;100117.00;5114340;28;20051;-80
2022/01/29 02:25:33;;;;;;;11.18;3.45;;;;;;;0.51;85.67;100106.38;5114034;28;20043;-80
2022/01/29 02:28:02;;;;;;;11.20;3.60;;;;;;;0.60;85.49;100110.72;5095394;28;20066;-79
2022/01/29 02:30:32;;;;;;;12.52;3.70;;;;;;;0.66;85.05;100107.13;5113831;28;20043;-79
2022/01/29 02:32:59;;;;;;;15.68;3.05;;;;;;;0.53;84.98;100112.53;5114092;28;20485;-79
2022/01/29 02:35:28;;;;;;;7.93;2.90;;;;;;;0.50;85.37;100120.56;5095858;28;20048;-80
2022/01/29 02:37:57;;;;;;;10.00;3.08;;;;;;;0.42;85.18;100117.09;5113666;28;20148;-79
2022/01/29 02:40:25;;;;;;;10.75;3.13;;;;;;;0.36;85.50;100111.84;5095377;28;20055;-81
2022/01/29 02:42:55;;;;;;;8.02;2.90;;;;;;;0.32;86.09;100118.09;5113884;28;20039;-80
2022/01/29 02:45:23;;;;;;;10.77;3.42;;;;;;;0.34;86.34;100124.28;5113822;28;20050;-79
2022/01/29 02:47:50;;;;;;;10.18;3.38;;;;;;;0.41;86.08;100125.97;5113994;28;20040;-79
2022/01/29 02:50:18;;;;;;;11.95;3.65;;;;;;;0.32;86.16;100134.91;5113893;28;20069;-79
2022/01/29 02:52:45;;;;;;;10.35;3.28;;;;;;;0.26;86.59;100130.56;5113774;28;20040;-80
2022/01/29 02:55:14;;;;;;;10.18;2.80;;;;;;;0.31;86.18;100134.94;5113428;28;20054;-80
2022/01/29 02:57:42;;;;;;;11.23;2.70;;;;;;;0.32;86.27;100132.25;5095372;28;20047;-79
2022/01/29 03:00:11;;;;;;;8.32;2.95;;;;;;;0.33;86.47;100122.50;5110116;28;20048;-79
2022/01/29 03:02:38;;;;;;;8.95;2.97;;;;;;;0.15;86.80;100132.41;5074975;28;20512;-81
2022/01/29 03:05:07;;;;;;;11.63;3.28;;;;;;;0.10;86.98;100126.25;5092928;28;20519;-79
2022/01/29 03:07:35;;;;;;;10.73;3.30;;;;;;;0.19;87.27;100130.63;5092760;28;20044;-80
2022/01/29 03:10:03;;;;;;;9.93;3.20;;;;;;;0.16;87.66;100135.97;5092569;28;20047;-79
2022/01/29 03:12:32;;;;;;;9.38;3.28;;;;;;;0.06;87.53;100135.16;5093264;28;20044;-79
2022/01/29 03:14:59;;;;;;;11.77;3.83;;;;;;;-0.05;88.19;100144.09;5093241;28;20052;-79
2022/01/29 03:17:27;;;;;;;7.80;3.20;;;;;;;0.00;87.79;100144.06;5074975;28;20051;-79
2022/01/29 03:19:54;;;;;;;11.55;3.03;;;;;;;0.04;87.39;100150.22;5093282;28;20040;-79
2022/01/29 03:22:22;;;;;;;11.00;3.28;;;;;;;0.17;87.67;100143.03;5093196;28;20051;-78
2022/01/29 03:24:49;;;;;;;8.50;2.97;;;;;;;0.10;87.63;100143.09;5092886;28;20383;-82
2022/01/29 03:27:17;;;;;;;11.48;2.83;;;;;;;0.16;87.22;100149.25;5093183;28;20048;-79
2022/01/29 03:29:46;;;;;;;9.93;3.30;;;;;;;0.16;87.45;100142.13;5106295;28;20039;-79
2022/01/29 03:32:13;;;;;;;13.25;3.47;;;;;;;0.08;86.95;100159.91;5117511;28;20046;-79
2022/01/29 03:34:41;;;;;;;10.38;3.42;;;;;;;0.11;87.07;100157.25;5117466;28;20402;-79
2022/01/29 03:37:09;;;;;;;12.60;3.38;;;;;;;0.15;86.68;100164.28;5117291;28;20050;-79
2022/01/29 03:39:38;;;;;;;10.20;3.00;;;;;;;0.07;87.33;100156.41;5116973;28;20130;-81
2022/01/29 03:42:09;;;;;;;9.32;2.97;;;;;;;-0.02;87.02;100165.31;5117276;28;20225;-79
2022/01/29 03:44:36;;;;;;;6.32;2.42;;;;;;;0.08;86.72;100160.81;5117337;28;20051;-80
2022/01/29 03:47:05;;;;;;;9.25;3.08;;;;;;;0.03;87.17;100172.34;5117263;28;20096;-79
2022/01/29 03:49:33;;;;;;;11.50;3.70;;;;;;;0.06;86.99;100165.25;5099137;28;20054;-79
2022/01/29 03:52:01;;;;;;;12.70;3.22;;;;;;;0.13;86.70;100159.00;5117160;28;20047;-79
2022/01/29 03:54:28;;;;;;;9.13;2.70;;;;;;;0.09;86.25;100164.34;5115898;28;20481;-80
2022/01/29 03:56:56;;;;;;;8.80;2.90;;;;;;;0.15;85.81;100156.31;5116660;28;20378;-79
2022/01/29 03:59:23;;;;;;;9.50;2.67;;;;;;;0.02;86.14;100162.63;5116115;28;20048;-80
2022/01/29 04:01:51;;;;;;;9.38;2.95;;;;;;;-0.02;86.77;100165.31;5116781;28;20051;-79
2022/01/29 04:04:20;;;;;;;10.20;3.17;;;;;;;-0.08;86.65;100170.69;5116841;28;20065;-79
2022/01/29 04:06:49;;;;;;;10.88;3.10;;;;;;;0.06;86.56;100164.38;5116653;28;20404;-79
2022/01/29 04:09:17;;;;;;;11.00;3.38;;;;;;;-0.04;86.41;100169.75;5116291;28;20096;-79
2022/01/29 04:11:45;;;;;;;14.23;3.70;;;;;;;0.04;86.62;100171.47;5116630;28;20040;-79
2022/01/29 04:14:16;;;;;;;10.13;3.38;;;;;;;-0.12;86.66;100170.69;5116638;28;20096;-79
2022/01/29 04:16:44;;;;;;;12.00;3.35;;;;;;;-0.18;86.73;100171.66;5116756;28;20119;-79
2022/01/29 04:19:12;;;;;;;10.75;3.15;;;;;;;-0.08;86.25;100172.44;5116633;28;20499;-80
2022/01/29 04:21:42;;;;;;;11.05;3.42;;;;;;;-0.20;86.52;100176.94;5116185;28;20039;-79
2022/01/29 04:24:09;;;;;;;9.18;3.20;;;;;;;-0.12;86.66;100184.88;5116656;28;20101;-78
2022/01/29 04:26:39;;;;;;;12.77;3.92;;;;;;;-0.03;86.36;100178.59;5117216;28;20381;-79
2022/01/29 04:29:08;;;;;;;11.45;3.75;;;;;;;-0.05;86.08;100170.66;5116084;28;20046;-78
2022/01/29 04:31:42;;;;;;;8.75;3.13;;;;;;;0.01;85.94;100179.47;5116458;28;20055;-80
2022/01/29 04:34:10;;;;;;;11.02;3.28;;;;;;;-0.02;86.47;100178.59;5116759;28;20051;-79
2022/01/29 04:36:38;;;;;;;15.48;6.97;;;;;;;-0.02;86.55;100178.59;5115801;28;20044;-78
2022/01/29 04:39:07;;;;;;;13.90;4.88;;;;;;;-0.18;87.22;100185.78;5116134;28;20059;-81
2022/01/29 04:41:34;;;;;;;12.05;4.35;;;;;;;-0.08;87.37;100193.69;5115220;28;20048;-80
2022/01/29 04:44:02;;;;;;;12.10;3.38;;;;;;;-0.13;87.26;100184.88;5097927;28;20051;-80
2022/01/29 04:46:29;;;;;;;12.90;3.67;;;;;;;-0.26;87.60;100189.38;5116151;28;20055;-79
2022/01/29 04:48:57;;;;;;;12.98;4.78;;;;;;;-0.34;88.20;100195.63;5115790;28;20481;-78
2022/01/29 04:51:25;;;;;;;10.32;3.47;;;;;;;-0.24;88.22;100195.56;5115679;27;20043;-79
2022/01/29 04:53:52;;;;;;;13.15;3.95;;;;;;;-0.23;87.94;100192.00;5114596;28;20075;-79
2022/01/29 04:56:21;;;;;;;8.23;3.05;;;;;;;-0.12;87.77;100191.94;5115803;27;20545;-78
2022/01/29 04:58:49;;;;;;;11.77;3.53;;;;;;;-0.20;87.67;100181.41;5114464;28;20047;-78
2022/01/29 05:01:16;;;;;;;13.48;3.88;;;;;;;-0.26;87.55;100186.72;5114488;28;20043;-78
2022/01/29 05:03:44;;;;;;;12.18;3.40;;;;;;;-0.25;88.00;100189.38;5115635;27;20043;-78
2022/01/29 05:06:12;;;;;;;9.27;3.35;;;;;;;-0.24;87.86;100184.94;5115235;27;20055;-81
2022/01/29 05:08:40;;;;;;;9.90;3.17;;;;;;;-0.22;87.88;100177.84;5115583;27;20061;-77
2022/01/29 05:11:08;;;;;;;12.30;3.40;;;;;;;-0.25;88.05;100191.13;5115677;28;20051;-78
2022/01/29 05:13:39;;;;;;;13.13;3.92;;;;;;;-0.21;88.26;100196.44;5115716;28;20051;-79
2022/01/29 05:16:29;;;;;;;9.38;2.97;;;;;;;-0.30;88.92;100188.53;5115933;27;20044;-79
2022/01/29 05:27:11;;;;;;;10.73;3.70;;;;;;;-0.26;89.09;100189.38;5115310;28;20040;-77
2022/01/29 05:29:40;;;;;;;11.25;4.05;;;;;;;-0.28;89.85;100199.13;5095470;27;20071;-79
2022/01/29 05:32:11;;;;;;;13.82;4.30;;;;;;;-0.16;89.76;100207.03;5094488;28;20051;-80
2022/01/29 05:34:40;;;;;;;12.65;4.55;;;;;;;-0.21;89.80;100198.19;5094952;28;20520;-77
2022/01/29 05:37:08;;;;;;;12.55;5.50;;;;;;;-0.12;89.31;100194.59;5094562;28;20043;-78
2022/01/29 05:39:37;;;;;;;15.73;5.35;;;;;;;-0.28;90.26;100196.47;5094311;28;20405;-78
2022/01/29 05:42:05;;;;;;;14.07;4.50;;;;;;;-0.38;90.47;100199.19;5094487;28;20572;-79
2022/01/29 05:44:32;;;;;;;20.65;6.93;;;;;;;-0.30;90.26;100200.00;5094358;28;20040;-78
2022/01/29 05:47:01;;;;;;;21.15;6.72;;;;;;;-0.31;90.48;100197.38;5094497;28;20044;-78
2022/01/29 05:49:29;;;;;;;42.05;11.15;;;;;;;-0.33;90.46;100200.03;5094194;28;20051;-78
2022/01/29 05:51:56;;;;;;;34.80;10.88;;;;;;;-0.26;90.60;100207.97;5094670;28;20047;-78
2022/01/29 05:54:24;;;;;;;91.60;26.88;;;;;;;-0.28;90.77;100205.34;5094360;28;20044;-78
2022/01/29 05:56:51;;;;;;;36.67;14.07;;;;;;;-0.18;90.79;100206.16;5094090;28;20066;-82
2022/01/29 05:59:19;;;;;;;44.35;14.98;;;;;;;-0.25;90.76;100215.03;5094165;28;20044;-79
2022/01/29 06:01:47;;;;;;;62.22;25.42;;;;;;;-0.33;91.14;100213.31;5094095;28;20052;-80
2022/01/29 06:04:15;;;;;;;53.00;19.67;;;;;;;-0.27;90.92;100215.06;5093771;28;20071;-78
2022/01/29 06:06:43;;;;;;;42.10;14.15;;;;;;;-0.34;92.02;100211.53;5093829;28;20056;-78
2022/01/29 06:09:11;;;;;;;40.03;14.93;;;;;;;-0.29;91.58;100211.53;5094053;28;20050;-76
2022/01/29 06:11:38;;;;;;;22.90;9.57;;;;;;;-0.28;91.22;100217.72;5094094;28;20439;-78
2022/01/29 06:14:06;;;;;;;28.45;10.95;;;;;;;-0.28;91.72;100215.06;5093927;28;20048;-78
2022/01/29 06:16:34;;;;;;;30.48;12.43;;;;;;;-0.32;91.63;100220.38;5093813;28;20040;-78
2022/01/29 06:19:01;;;;;;;32.83;11.25;;;;;;;-0.46;91.77;100216.94;5093523;28;20051;-79
2022/01/29 06:21:30;;;;;;;31.00;12.70;;;;;;;-0.37;91.97;100223.97;5093778;28;20036;-80
2022/01/29 06:23:59;;;;;;;34.03;14.93;;;;;;;-0.42;91.98;100215.13;5093830;28;20039;-77
2022/01/29 06:26:26;;;;;;;31.23;12.05;;;;;;;-0.43;92.11;100222.22;5093710;28;20044;-79
2022/01/29 06:28:54;;;;;;;19.90;8.35;;;;;;;-0.33;91.37;100220.41;5097413;28;20100;-80
2022/01/29 06:31:21;;;;;;;37.80;15.88;;;;;;;-0.39;92.43;100209.81;5113861;28;20071;-79
2022/01/29 06:33:49;;;;;;;32.17;13.10;;;;;;;-0.37;91.50;100218.66;5113671;28;20040;-81
2022/01/29 06:36:17;;;;;;;34.83;13.98;;;;;;;-0.33;92.07;100225.72;5113896;28;20044;-78
2022/01/29 06:38:46;;;;;;;27.60;11.60;;;;;;;-0.49;92.56;100215.16;5113570;28;20522;-78
2022/01/29 06:41:13;;;;;;;35.60;13.43;;;;;;;-0.34;92.43;100221.31;5113740;28;20043;-79
2022/01/29 06:43:41;;;;;;;33.80;12.85;;;;;;;-0.40;92.84;100224.00;5095747;28;20062;-80
2022/01/29 06:46:09;;;;;;;27.73;12.60;;;;;;;-0.44;92.52;100223.09;5113650;28;20039;-79
2022/01/29 06:48:36;;;;;;;34.72;13.10;;;;;;;-0.43;93.12;100219.56;5113357;28;20556;-82
2022/01/29 06:51:04;;;;;;;37.92;14.10;;;;;;;-0.54;93.17;100221.41;5113880;28;20047;-79
2022/01/29 06:53:32;;;;;;;55.90;21.77;;;;;;;-0.32;93.12;100214.22;5112075;28;20052;-78
2022/01/29 06:56:00;;;;;;;80.88;28.67;;;;;;;-0.26;92.30;100207.97;5109971;28;20043;-77
2022/01/29 06:58:28;;;;;;;59.83;18.50;;;;;;;-0.30;92.47;100213.28;5109786;28;20040;-80
2022/01/29 07:00:56;;;;;;;72.05;26.13;;;;;;;-0.25;92.66;100212.38;5110239;28;20484;-79
2022/01/29 07:03:23;;;;;;;71.45;25.85;;;;;;;-0.31;92.97;100216.84;5109077;28;20051;-80
2022/01/29 07:05:51;;;;;;;52.60;16.98;;;;;;;-0.28;92.14;100215.06;5109672;28;20052;-78
2022/01/29 07:08:18;;;;;;;38.58;14.35;;;;;;;-0.23;92.91;100203.53;5109894;27;20047;-79
2022/01/29 07:10:48;;;;;;;28.52;11.70;;;;;;;-0.26;92.97;100210.63;5087636;28;20052;-80
2022/01/29 07:13:20;;;;;;;26.73;10.68;;;;;;;-0.23;92.73;100213.25;5090635;28;20058;-79
2022/01/29 07:15:48;;;;;;;32.10;12.05;;;;;;;-0.13;91.82;100208.78;5090201;28;20135;-78
2022/01/29 07:18:15;;;;;;;36.08;13.32;;;;;;;-0.13;92.53;100217.63;5089646;28;20401;-79
2022/01/29 07:20:43;;;;;;;48.75;18.98;;;;;;;-0.07;91.94;100214.03;5100425;28;20043;-80
2022/01/29 07:23:10;;;;;;;32.47;12.93;;;;;;;-0.06;91.78;100221.09;5108911;27;20056;-79
2022/01/29 07:25:38;;;;;;;29.85;11.45;;;;;;;-0.04;92.06;100214.91;5108854;28;20054;-81
2022/01/29 07:28:05;;;;;;;27.75;10.27;;;;;;;-0.12;92.56;100211.44;5106598;28;20051;-82
2022/01/29 07:30:34;;;;;;;29.80;12.32;;;;;;;0.06;91.48;100220.16;5105411;28;20051;-81
2022/01/29 07:33:02;;;;;;;22.85;10.18;;;;;;;-0.12;92.31;100216.75;5106779;28;20047;-81
2022/01/29 07:35:30;;;;;;;21.80;8.95;;;;;;;0.00;91.77;100205.16;5108495;28;20046;-78
2022/01/29 07:37:57;;;;;;;19.13;8.60;;;;;;;0.03;92.35;100212.19;5108282;28;20047;-78
2022/01/29 07:40:25;;;;;;;19.95;8.63;;;;;;;-0.07;92.79;100209.63;5112839;28;20541;-81
2022/01/29 07:42:53;;;;;;;18.42;8.55;;;;;;;0.02;92.58;100213.09;5091999;28;20492;-84
2022/01/29 07:45:21;;;;;;;16.50;7.63;;;;;;;0.03;91.97;100209.53;5109765;28;20047;-79
2022/01/29 07:47:50;;;;;;;28.92;13.50;;;;;;;0.14;91.40;100197.97;5109537;28;20054;-83
2022/01/29 07:50:17;;;;;;;23.10;10.35;;;;;;;-0.01;91.85;100195.41;5110116;28;20069;-78
2022/01/29 07:52:45;;;;;;;24.38;9.57;;;;;;;0.01;92.31;100185.66;5110333;28;20043;-86
2022/01/29 07:55:12;;;;;;;30.48;13.32;;;;;;;0.04;91.88;100188.31;5109258;28;20085;-80
2022/01/29 07:57:40;;;;;;;27.88;10.80;;;;;;;-0.04;92.06;100185.69;5109930;28;20442;-82
2022/01/29 08:00:09;;;;;;;40.03;16.33;;;;;;;0.12;91.33;100191.78;5109574;28;20044;-77
2022/01/29 08:02:36;;;;;;;33.97;13.52;;;;;;;0.15;91.31;100188.19;5110419;27;20059;-79
2022/01/29 08:05:06;;;;;;;39.42;15.82;;;;;;;0.04;90.91;100187.41;5108187;28;20043;-77
2022/01/29 08:07:33;;;;;;;29.70;11.00;;;;;;;-0.09;91.44;100184.84;5109111;28;20039;-78
2022/01/29 08:10:01;;;;;;;27.23;10.00;;;;;;;-0.06;91.25;100176.84;5109603;28;20125;-77
2022/01/29 08:12:28;;;;;;;20.63;9.18;;;;;;;-0.08;91.37;100177.75;5109247;28;20450;-81
2022/01/29 08:14:56;;;;;;;26.55;9.95;;;;;;;0.10;91.49;100176.72;5108964;28;20369;-81
2022/01/29 08:17:23;;;;;;;30.40;11.60;;;;;;;0.10;90.75;100171.41;5112401;28;20047;-79
2022/01/29 08:19:51;;;;;;;40.97;19.55;;;;;;;0.09;91.05;100169.66;5112902;28;20415;-78
2022/01/29 08:22:20;;;;;;;38.80;18.48;;;;;;;0.10;91.26;100171.41;5112957;28;20385;-80
2022/01/29 08:24:47;;;;;;;24.05;9.38;;;;;;;0.19;90.99;100179.31;5113447;28;20039;-86
2022/01/29 08:27:15;;;;;;;25.35;9.48;;;;;;;0.27;90.63;100174.81;5113819;28;20414;-78
2022/01/29 08:29:42;;;;;;;54.53;20.40;;;;;;;0.28;90.76;100160.66;5097718;28;20393;-78
2022/01/29 08:32:11;;;;;;;37.00;15.73;;;;;;;0.22;90.75;100174.00;5113029;28;20616;-78
2022/01/29 08:34:40;;;;;;;38.22;14.43;;;;;;;0.21;91.08;100169.56;5112611;28;20043;-79
2022/01/29 08:37:07;;;;;;;28.05;11.95;;;;;;;0.25;90.14;100167.75;5112833;28;20051;-77
2022/01/29 08:39:37;;;;;;;49.17;19.33;;;;;;;0.18;91.41;100169.56;5112397;28;20086;-77
2022/01/29 08:42:05;;;;;;;45.25;17.08;;;;;;;0.34;90.60;100158.81;5112654;28;20100;-81
2022/01/29 08:44:33;;;;;;;33.65;11.38;;;;;;;0.54;89.85;100166.59;5113025;28;20046;-81
2022/01/29 08:47:00;;;;;;;31.38;13.13;;;;;;;0.20;90.52;100170.44;5112815;28;20048;-78
2022/01/29 08:49:28;;;;;;;36.40;13.02;;;;;;;0.26;89.98;100164.19;5113856;28;20044;-90
2022/01/29 08:51:55;;;;;;;25.08;11.05;;;;;;;0.25;90.62;100159.78;5113382;28;20052;-78
2022/01/29 08:54:23;;;;;;;26.77;11.63;;;;;;;0.13;90.83;100168.72;5112960;28;20051;-78
2022/01/29 08:56:52;;;;;;;24.73;10.68;;;;;;;0.29;90.77;100164.16;5112332;28;20061;-77
2022/01/29 08:59:19;;;;;;;18.35;8.02;;;;;;;0.40;89.99;100162.28;5111870;28;20514;-82
2022/01/29 09:01:49;;;;;;;30.00;11.77;;;;;;;0.57;89.03;100159.47;5112716;28;20043;-81
2022/01/29 09:04:17;;;;;;;30.05;11.10;;;;;;;0.60;88.88;100153.25;5113401;28;20058;-84
2022/01/29 09:06:44;;;;;;;34.33;10.57;;;;;;;0.60;88.92;100157.66;5094378;28;20142;-86
2022/01/29 09:09:12;;;;;;;37.53;12.90;;;;;;;0.62;88.77;100151.44;5112649;28;20127;-80
2022/01/29 09:11:40;;;;;;;22.17;8.50;;;;;;;0.74;88.43;100144.22;5112249;28;20063;-82
2022/01/29 09:14:09;;;;;;;31.08;10.15;;;;;;;0.79;88.57;100148.63;5113173;28;20044;-83
2022/01/29 09:16:36;;;;;;;28.65;10.27;;;;;;;0.96;87.67;100150.19;5112492;28;20116;-79
2022/01/29 09:19:04;;;;;;;37.45;12.35;;;;;;;0.94;88.04;100154.63;5111793;28;20047;-82
2022/01/29 09:21:32;;;;;;;45.63;12.63;;;;;;;1.08;87.30;100158.03;5111302;28;20523;-83
2022/01/29 09:23:59;;;;;;;23.02;11.50;;;;;;;1.04;87.46;100145.69;5111712;27;20416;-79
2022/01/29 09:26:27;;;;;;;18.60;8.18;;;;;;;1.04;87.38;100152.75;5109796;28;20509;-82
2022/01/29 09:28:54;;;;;;;25.08;8.13;;;;;;;1.02;87.11;100139.50;5098421;27;20047;-82
2022/01/29 09:31:24;;;;;;;17.35;6.05;;;;;;;1.11;86.77;100139.38;5109996;28;20499;-79
2022/01/29 09:33:52;;;;;;;16.25;6.95;;;;;;;1.11;86.10;100134.06;5111587;28;20058;-82
2022/01/29 09:36:21;;;;;;;19.70;7.50;;;;;;;1.06;86.68;100137.66;5111390;28;20047;-81
2022/01/29 09:38:48;;;;;;;19.60;9.63;;;;;;;1.04;86.16;100139.47;5093093;28;20083;-81
2022/01/29 09:41:18;;;;;;;26.67;9.50;;;;;;;1.08;86.26;100123.44;5111289;28;20039;-82
2022/01/29 09:43:46;;;;;;;33.53;12.23;;;;;;;1.14;86.57;100128.69;5111280;28;20050;-83
2022/01/29 09:46:16;;;;;;;28.95;9.77;;;;;;;1.32;86.00;100132.00;5111470;28;20051;-79
2022/01/29 09:48:45;;;;;;;31.27;10.82;;;;;;;1.27;85.17;100126.75;5111284;28;20051;-84
2022/01/29 09:51:13;;;;;;;19.02;7.95;;;;;;;1.30;85.58;100120.50;5111556;28;20043;-85
2022/01/29 09:53:42;;;;;;;37.88;18.00;;;;;;;1.24;85.77;100118.81;5093549;28;20114;-81
2022/01/29 09:56:10;;;;;;;20.73;8.77;;;;;;;1.24;86.07;100112.59;5110903;28;20039;-81
2022/01/29 09:58:38;;;;;;;17.33;6.82;;;;;;;1.15;85.07;100111.81;5111152;28;20046;-86
2022/01/29 10:01:06;;;;;;;24.65;8.70;;;;;;;1.28;85.66;100112.53;5111352;27;20051;-86
2022/01/29 10:03:34;;;;;;;22.98;8.10;;;;;;;1.11;85.24;100109.22;5112085;28;20048;-84
2022/01/29 10:06:04;;;;;;;23.35;8.10;;;;;;;1.25;84.48;100090.41;5111257;28;20045;-84
2022/01/29 10:08:42;;;;;;;18.25;6.55;;;;;;;1.15;84.82;100089.63;5111369;28;20062;-81
2022/01/29 10:11:19;;;;;;;22.73;7.75;;;;;;;1.28;84.84;100093.00;5112451;27;20385;-81
2022/01/29 10:13:47;;;;;;;21.55;8.82;;;;;;;1.44;84.49;100086.59;5112508;27;20084;-87
2022/01/29 10:16:18;;;;;;;24.73;9.05;;;;;;;1.31;85.82;100082.31;5111161;27;20043;-85
2022/01/29 10:18:48;;;;;;;20.85;9.07;;;;;;;1.21;85.73;100080.69;5111115;27;20051;-80
2022/01/29 10:21:22;;;;;;;20.60;9.35;;;;;;;1.37;85.64;100068.06;5109869;28;20454;-79
2022/01/29 10:24:01;;;;;;;23.30;9.93;;;;;;;1.49;85.41;100059.00;5111021;28;20043;-80
2022/01/29 10:26:31;;;;;;;18.70;8.90;;;;;;;1.46;85.17;100051.94;5114357;27;20047;-84
2022/01/29 10:28:58;;;;;;;17.63;8.18;;;;;;;1.48;85.61;100046.59;5091783;28;20044;-78
2022/01/29 10:31:26;;;;;;;15.57;7.47;;;;;;;1.57;84.67;100047.31;5094391;28;20051;-80
2022/01/29 10:33:57;;;;;;;16.60;6.90;;;;;;;1.47;84.59;100044.84;5093697;28;20048;-79
2022/01/29 10:36:26;;;;;;;16.73;7.13;;;;;;;1.58;84.66;100032.22;5114767;28;20040;-81
2022/01/29 10:38:55;;;;;;;14.60;6.13;;;;;;;1.42;84.47;100035.13;5093888;28;20051;-87
2022/01/29 10:41:26;;;;;;;21.23;9.43;;;;;;;1.48;85.04;100023.50;5094837;28;20047;-84
2022/01/29 10:44:18;;;;;;;18.27;8.40;;;;;;;1.57;85.04;100027.81;5093664;28;20067;-84
2022/01/29 10:46:48;;;;;;;28.52;13.18;;;;;;;1.59;84.81;100018.00;5110405;28;20056;-85
2022/01/29 10:49:23;;;;;;;31.77;10.05;;;;;;;1.57;84.54;100019.81;5091558;28;20043;-85
2022/01/29 10:52:04;;;;;;;29.80;10.65;;;;;;;1.70;84.15;100016.03;5111625;28;20047;-87
2022/01/29 10:54:33;;;;;;;39.13;16.95;;;;;;;1.60;83.73;100014.44;5111846;28;20046;-79
2022/01/29 10:57:03;;;;;;;22.73;10.02;;;;;;;1.56;84.49;100010.06;5112889;28;20073;-83
2022/01/29 10:59:33;;;;;;;21.05;9.18;;;;;;;1.62;84.74;100012.63;5112670;28;20377;-84
2022/01/29 11:02:01;;;;;;;24.63;11.18;;;;;;;1.79;84.04;99992.81;5094410;28;20047;-82
2022/01/29 11:04:30;;;;;;;26.02;11.65;;;;;;;1.77;83.96;99989.28;5112542;28;20050;-80
2022/01/29 11:07:03;;;;;;;29.15;14.27;;;;;;;1.67;83.38;99984.13;5112670;28;20125;-84
2022/01/29 11:09:32;;;;;;;23.40;10.15;;;;;;;1.66;81.72;99973.53;5107432;28;20040;-83
2022/01/29 11:12:03;;;;;;;30.38;13.75;;;;;;;1.64;81.28;99967.34;5112289;28;20447;-80
2022/01/29 11:14:33;;;;;;;30.45;13.93;;;;;;;1.70;82.80;99961.91;5112331;28;20043;-80
2022/01/29 11:17:02;;;;;;;21.42;8.70;;;;;;;1.95;82.37;99967.66;5112154;28;20545;-79
2022/01/29 11:19:29;;;;;;;23.17;11.25;;;;;;;1.90;82.08;99964.22;5112360;28;20449;-83
2022/01/29 11:22:02;;;;;;;19.55;7.43;;;;;;;1.81;80.63;99961.69;5094051;28;20481;-85
2022/01/29 11:24:30;;;;;;;24.35;11.45;;;;;;;1.94;80.59;99965.91;5111969;28;20031;-80
2022/01/29 11:26:58;;;;;;;22.48;9.35;;;;;;;2.07;79.75;99965.66;5094449;28;20043;-82
2022/01/29 11:29:34;;;;;;;16.10;7.38;;;;;;;1.98;79.14;99951.63;5111974;28;20044;-80
2022/01/29 11:32:32;;;;;;;18.27;7.38;;;;;;;2.14;80.52;99948.63;5109767;28;20451;-81
2022/01/29 11:35:11;;;;;;;27.90;11.18;;;;;;;2.31;78.65;99948.31;5113671;28;20114;-79
2022/01/29 11:37:45;;;;;;;17.50;7.40;;;;;;;2.26;79.60;99948.41;5110372;28;20441;-80